createdAt,value
2016-08-07T00:00:38.658Z,0
2016-08-07T00:01:38.576Z,0
2016-08-07T00:02:38.553Z,0
2016-08-07T00:03:38.567Z,0
2016-08-07T00:04:38.570Z,0
2016-08-07T00:05:38.613Z,0
2016-08-07T00:06:38.551Z,0
2016-08-07T00:07:38.566Z,0
2016-08-07T00:08:38.573Z,0
2016-08-07T00:09:38.606Z,0
2016-08-07T00:10:38.648Z,0
2016-08-07T00:11:38.563Z,0
2016-08-07T00:12:38.577Z,0
2016-08-07T00:13:38.578Z,0
2016-08-07T00:14:38.581Z,0
2016-08-07T00:15:38.600Z,0
2016-08-07T00:16:38.596Z,0
2016-08-07T00:17:38.576Z,0
2016-08-07T00:18:38.573Z,0
2016-08-07T00:19:38.580Z,0
2016-08-07T00:20:38.685Z,0
2016-08-07T00:21:38.587Z,0
2016-08-07T00:22:38.601Z,0
2016-08-07T00:23:38.581Z,0
2016-08-07T00:24:38.587Z,0
2016-08-07T00:25:38.649Z,0
2016-08-07T00:26:39.277Z,0
2016-08-07T00:27:38.574Z,0
2016-08-07T00:28:38.584Z,0
2016-08-07T00:29:38.804Z,0
2016-08-07T00:30:38.623Z,0
2016-08-07T00:31:38.585Z,0
2016-08-07T00:32:38.576Z,0
2016-08-07T00:33:38.624Z,0
2016-08-07T00:34:39.281Z,0
2016-08-07T00:35:38.658Z,0
2016-08-07T00:36:38.602Z,0
2016-08-07T00:37:38.592Z,0
2016-08-07T00:38:38.582Z,0
2016-08-07T00:39:38.590Z,0
2016-08-07T00:40:39.374Z,0
2016-08-07T00:41:38.611Z,0
2016-08-07T00:42:38.593Z,0
2016-08-07T00:43:38.610Z,0
2016-08-07T00:44:38.593Z,0
2016-08-07T00:45:38.653Z,0
2016-08-07T00:46:38.590Z,0
2016-08-07T00:47:38.670Z,0
2016-08-07T00:48:38.614Z,0
2016-08-07T00:49:38.589Z,0
2016-08-07T00:50:38.685Z,0
2016-08-07T00:51:41.668Z,0
2016-08-07T00:52:38.586Z,0
2016-08-07T00:53:38.607Z,0
2016-08-07T00:54:38.596Z,0
2016-08-07T00:55:39.376Z,0
2016-08-07T00:56:39.292Z,0
2016-08-07T00:57:38.626Z,0
2016-08-07T00:58:38.596Z,0
2016-08-07T00:59:39.304Z,0
2016-08-07T01:00:38.864Z,0
2016-08-07T01:01:38.612Z,0
2016-08-07T01:02:38.624Z,0
2016-08-07T01:03:38.618Z,0
2016-08-07T01:04:38.613Z,0
2016-08-07T01:05:38.671Z,0
2016-08-07T01:06:39.303Z,0
2016-08-07T01:07:38.593Z,0
2016-08-07T01:08:39.301Z,0
2016-08-07T01:09:38.608Z,0
2016-08-07T01:10:38.629Z,0
2016-08-07T01:11:39.336Z,0
2016-08-07T01:12:38.625Z,0
2016-08-07T01:13:38.611Z,0
2016-08-07T01:14:38.602Z,0
2016-08-07T01:15:38.778Z,0
2016-08-07T01:16:38.608Z,0
2016-08-07T01:17:39.951Z,0
2016-08-07T01:18:38.602Z,0
2016-08-07T01:19:38.617Z,0
2016-08-07T01:20:39.330Z,0
2016-08-07T01:21:38.604Z,0
2016-08-07T01:22:38.622Z,0
2016-08-07T01:23:38.619Z,0
2016-08-07T01:24:38.620Z,0
2016-08-07T01:25:38.661Z,0
2016-08-07T01:26:38.615Z,0
2016-08-07T01:27:38.624Z,0
2016-08-07T01:28:38.631Z,0
2016-08-07T01:29:38.642Z,0
2016-08-07T01:30:38.691Z,0
2016-08-07T01:31:38.623Z,0
2016-08-07T01:32:38.617Z,0
2016-08-07T01:33:38.633Z,0
2016-08-07T01:34:38.647Z,0
2016-08-07T01:35:38.645Z,0
2016-08-07T01:36:38.678Z,0
2016-08-07T01:37:38.613Z,0
2016-08-07T01:38:38.648Z,0
2016-08-07T01:39:38.651Z,0
2016-08-07T01:40:38.714Z,0
2016-08-07T01:41:39.319Z,0
2016-08-07T01:42:38.621Z,0
2016-08-07T01:43:38.628Z,0
2016-08-07T01:44:38.617Z,0
2016-08-07T01:45:38.714Z,0
2016-08-07T01:46:38.667Z,0
2016-08-07T01:47:39.324Z,0
2016-08-07T01:48:39.317Z,0
2016-08-07T01:49:39.327Z,0
2016-08-07T01:50:38.687Z,0
2016-08-07T01:51:38.627Z,0
2016-08-07T01:52:38.656Z,0
2016-08-07T01:53:38.686Z,0
2016-08-07T01:54:38.656Z,0
2016-08-07T01:55:38.727Z,0
2016-08-07T01:56:39.329Z,0
2016-08-07T01:57:38.630Z,0
2016-08-07T01:58:38.625Z,0
2016-08-07T01:59:38.690Z,0
2016-08-07T02:00:38.734Z,0
2016-08-07T02:01:38.647Z,0
2016-08-07T02:02:38.629Z,0
2016-08-07T02:03:38.655Z,0
2016-08-07T02:04:38.663Z,0
2016-08-07T02:05:40.664Z,0
2016-08-07T02:06:38.652Z,0
2016-08-07T02:07:40.632Z,0
2016-08-07T02:08:38.644Z,0
2016-08-07T02:09:39.366Z,0
2016-08-07T02:10:38.668Z,0
2016-08-07T02:11:38.626Z,0
2016-08-07T02:12:38.643Z,0
2016-08-07T02:13:38.703Z,0
2016-08-07T02:14:38.636Z,0
2016-08-07T02:15:38.911Z,0
2016-08-07T02:16:38.645Z,0
2016-08-07T02:17:38.668Z,0
2016-08-07T02:18:39.330Z,0
2016-08-07T02:19:38.668Z,0
2016-08-07T02:20:38.749Z,0
2016-08-07T02:21:38.640Z,0
2016-08-07T02:22:39.466Z,0
2016-08-07T02:23:38.646Z,0
2016-08-07T02:24:38.632Z,0
2016-08-07T02:25:38.738Z,0
2016-08-07T02:26:39.349Z,0
2016-08-07T02:27:38.651Z,0
2016-08-07T02:28:38.656Z,0
2016-08-07T02:29:38.647Z,0
2016-08-07T02:30:39.419Z,0
2016-08-07T02:31:38.625Z,0
2016-08-07T02:32:39.329Z,0
2016-08-07T02:33:38.631Z,0
2016-08-07T02:34:38.656Z,0
2016-08-07T02:35:38.742Z,0
2016-08-07T02:36:38.650Z,0
2016-08-07T02:37:38.630Z,0
2016-08-07T02:38:38.661Z,0
2016-08-07T02:39:38.667Z,0
2016-08-07T02:40:38.677Z,0
2016-08-07T02:41:39.343Z,0
2016-08-07T02:42:38.658Z,0
2016-08-07T02:43:38.640Z,0
2016-08-07T02:44:38.645Z,0
2016-08-07T02:45:38.675Z,0
2016-08-07T02:46:38.636Z,0
2016-08-07T02:47:38.665Z,0
2016-08-07T02:48:39.337Z,0
2016-08-07T02:49:38.730Z,0
2016-08-07T02:50:38.751Z,0
2016-08-07T02:51:39.375Z,0
2016-08-07T02:52:38.643Z,0
2016-08-07T02:53:38.637Z,0
2016-08-07T02:54:38.628Z,0
2016-08-07T02:55:38.718Z,0
2016-08-07T02:56:38.635Z,0
2016-08-07T02:57:38.650Z,0
2016-08-07T02:58:38.659Z,0
2016-08-07T02:59:39.342Z,0
2016-08-07T03:00:38.695Z,0
2016-08-07T03:01:38.633Z,0
2016-08-07T03:02:38.640Z,0
2016-08-07T03:03:41.898Z,0
2016-08-07T03:04:38.642Z,0
2016-08-07T03:05:38.689Z,0
2016-08-07T03:06:38.662Z,0
2016-08-07T03:07:38.647Z,0
2016-08-07T03:08:38.639Z,0
2016-08-07T03:09:38.641Z,0
2016-08-07T03:10:38.711Z,0
2016-08-07T03:11:39.342Z,0
2016-08-07T03:12:38.641Z,0
2016-08-07T03:13:38.641Z,0
2016-08-07T03:14:40.058Z,0
2016-08-07T03:15:39.367Z,0
2016-08-07T03:16:38.655Z,0
2016-08-07T03:17:38.643Z,0
2016-08-07T03:18:39.345Z,0
2016-08-07T03:19:38.649Z,0
2016-08-07T03:20:38.767Z,0
2016-08-07T03:21:39.381Z,0
2016-08-07T03:22:38.673Z,0
2016-08-07T03:23:38.664Z,0
2016-08-07T03:24:38.652Z,0
2016-08-07T03:25:38.773Z,0
2016-08-07T03:26:38.659Z,0
2016-08-07T03:27:38.651Z,0
2016-08-07T03:28:38.654Z,0
2016-08-07T03:29:38.640Z,0
2016-08-07T03:30:38.671Z,0
2016-08-07T03:31:38.646Z,0
2016-08-07T03:32:38.681Z,0
2016-08-07T03:33:38.631Z,0
2016-08-07T03:34:39.339Z,0
2016-08-07T03:35:38.739Z,0
2016-08-07T03:37:39.524Z,0
2016-08-07T03:38:38.661Z,0
2016-08-07T03:39:38.647Z,0
2016-08-07T03:40:38.669Z,0
2016-08-07T03:41:38.632Z,0
2016-08-07T03:42:39.330Z,0
2016-08-07T03:43:38.640Z,0
2016-08-07T03:44:38.628Z,0
2016-08-07T03:45:38.656Z,0
2016-08-07T03:46:38.659Z,0
2016-08-07T03:47:38.652Z,0
2016-08-07T03:48:38.639Z,0
2016-08-07T03:49:39.461Z,0
2016-08-07T03:50:38.745Z,0
2016-08-07T03:52:39.341Z,0
2016-08-07T03:53:38.626Z,0
2016-08-07T03:54:38.655Z,0
2016-08-07T03:55:39.876Z,0
2016-08-07T03:56:38.631Z,0
2016-08-07T03:57:38.645Z,0
2016-08-07T03:58:38.641Z,5
2016-08-07T03:59:38.625Z,5
2016-08-07T04:00:38.725Z,5
2016-08-07T04:01:38.655Z,5
2016-08-07T04:02:38.649Z,5
2016-08-07T04:03:38.625Z,5
2016-08-07T04:04:38.646Z,5
2016-08-07T04:05:38.803Z,5
2016-08-07T04:07:38.635Z,10
2016-08-07T04:08:38.634Z,10
2016-08-07T04:09:38.728Z,10
2016-08-07T04:10:38.715Z,10
2016-08-07T04:11:38.640Z,15
2016-08-07T04:12:39.331Z,15
2016-08-07T04:13:38.665Z,15
2016-08-07T04:14:38.628Z,15
2016-08-07T04:15:38.710Z,20
2016-08-07T04:16:38.650Z,20
2016-08-07T04:17:38.638Z,20
2016-08-07T04:18:38.664Z,20
2016-08-07T04:19:38.650Z,25
2016-08-07T04:20:38.671Z,25
2016-08-07T04:21:38.656Z,25
2016-08-07T04:22:38.632Z,25
2016-08-07T04:23:38.663Z,30
2016-08-07T04:24:38.644Z,30
2016-08-07T04:25:38.642Z,30
2016-08-07T04:26:38.647Z,35
2016-08-07T04:27:38.630Z,35
2016-08-07T04:28:38.642Z,35
2016-08-07T04:29:38.629Z,35
2016-08-07T04:30:38.662Z,40
2016-08-07T04:31:39.336Z,40
2016-08-07T04:32:38.648Z,45
2016-08-07T04:33:38.641Z,55
2016-08-07T04:34:38.643Z,75
2016-08-07T04:35:39.517Z,80
2016-08-07T04:36:38.726Z,90
2016-08-07T04:37:38.620Z,90
2016-08-07T04:38:38.628Z,95
2016-08-07T04:39:39.456Z,95
2016-08-07T04:40:38.702Z,100
2016-08-07T04:41:38.643Z,105
2016-08-07T04:42:38.664Z,105
2016-08-07T04:43:38.634Z,95
2016-08-07T04:44:39.340Z,85
2016-08-07T04:45:38.704Z,80
2016-08-07T04:46:38.629Z,125
2016-08-07T04:47:38.671Z,125
2016-08-07T04:48:39.874Z,85
2016-08-07T04:49:38.646Z,130
2016-08-07T04:50:38.668Z,120
2016-08-07T04:51:38.649Z,135
2016-08-07T04:52:38.660Z,140
2016-08-07T04:53:38.647Z,150
2016-08-07T04:54:38.674Z,160
2016-08-07T04:55:38.659Z,165
2016-08-07T04:56:38.652Z,170
2016-08-07T04:57:39.344Z,170
2016-08-07T04:58:39.347Z,180
2016-08-07T04:59:38.654Z,180
2016-08-07T05:00:38.682Z,185
2016-08-07T05:01:38.678Z,185
2016-08-07T05:02:38.665Z,190
2016-08-07T05:03:38.659Z,190
2016-08-07T05:04:38.675Z,195
2016-08-07T05:05:38.740Z,200
2016-08-07T05:06:38.678Z,205
2016-08-07T05:07:38.667Z,205
2016-08-07T05:08:39.379Z,215
2016-08-07T05:09:38.783Z,150
2016-08-07T05:10:38.757Z,195
2016-08-07T05:11:38.718Z,205
2016-08-07T05:12:38.710Z,215
2016-08-07T05:13:38.699Z,215
2016-08-07T05:14:38.688Z,220
2016-08-07T05:15:38.775Z,210
2016-08-07T05:16:38.687Z,215
2016-08-07T05:17:38.709Z,215
2016-08-07T05:18:38.746Z,215
2016-08-07T05:19:38.726Z,215
2016-08-07T05:20:38.744Z,240
2016-08-07T05:21:38.729Z,200
2016-08-07T05:22:38.732Z,175
2016-08-07T05:23:38.730Z,200
2016-08-07T05:24:38.730Z,190
2016-08-07T05:25:38.779Z,175
2016-08-07T05:26:38.727Z,160
2016-08-07T05:27:39.430Z,150
2016-08-07T05:28:38.742Z,140
2016-08-07T05:29:38.744Z,135
2016-08-07T05:30:38.821Z,130
2016-08-07T05:31:38.764Z,135
2016-08-07T05:32:38.752Z,135
2016-08-07T05:33:38.754Z,130
2016-08-07T05:34:39.233Z,135
2016-08-07T05:35:39.861Z,135
2016-08-07T05:36:39.457Z,135
2016-08-07T05:37:38.778Z,140
2016-08-07T05:38:38.781Z,285
2016-08-07T05:39:38.818Z,295
2016-08-07T05:40:38.812Z,300
2016-08-07T05:41:38.797Z,305
2016-08-07T05:42:38.800Z,310
2016-08-07T05:43:38.806Z,310
2016-08-07T05:44:38.787Z,320
2016-08-07T05:45:39.523Z,320
2016-08-07T05:46:38.802Z,330
2016-08-07T05:47:38.813Z,325
2016-08-07T05:48:38.844Z,325
2016-08-07T05:49:38.810Z,325
2016-08-07T05:50:38.901Z,325
2016-08-07T05:51:38.808Z,320
2016-08-07T05:52:38.848Z,200
2016-08-07T05:53:38.844Z,200
2016-08-07T05:54:38.892Z,160
2016-08-07T05:55:38.851Z,150
2016-08-07T05:56:40.244Z,150
2016-08-07T05:57:38.871Z,150
2016-08-07T05:58:38.875Z,150
2016-08-07T05:59:38.853Z,145
2016-08-07T06:00:38.989Z,145
2016-08-07T06:01:38.870Z,145
2016-08-07T06:02:41.230Z,145
2016-08-07T06:03:39.558Z,150
2016-08-07T06:04:38.880Z,150
2016-08-07T06:05:38.879Z,155
2016-08-07T06:06:38.884Z,170
2016-08-07T06:07:38.880Z,180
2016-08-07T06:08:38.888Z,185
2016-08-07T06:09:39.086Z,180
2016-08-07T06:10:39.021Z,185
2016-08-07T06:11:38.905Z,190
2016-08-07T06:12:39.779Z,195
2016-08-07T06:13:38.916Z,195
2016-08-07T06:14:38.912Z,205
2016-08-07T06:15:38.918Z,210
2016-08-07T06:16:38.915Z,225
2016-08-07T06:17:38.953Z,250
2016-08-07T06:18:38.929Z,270
2016-08-07T06:19:39.659Z,275
2016-08-07T06:20:38.944Z,290
2016-08-07T06:21:42.206Z,290
2016-08-07T06:22:38.914Z,290
2016-08-07T06:23:38.921Z,290
2016-08-07T06:24:38.946Z,300
2016-08-07T06:25:38.980Z,300
2016-08-07T06:26:38.933Z,300
2016-08-07T06:27:38.966Z,305
2016-08-07T06:28:38.946Z,300
2016-08-07T06:29:38.945Z,300
2016-08-07T06:30:39.028Z,305
2016-08-07T06:31:39.671Z,305
2016-08-07T06:32:39.004Z,305
2016-08-07T06:33:38.969Z,305
2016-08-07T06:34:43.570Z,305
2016-08-07T06:35:39.506Z,305
2016-08-07T06:36:39.010Z,315
2016-08-07T06:37:38.986Z,310
2016-08-07T06:38:39.690Z,310
2016-08-07T06:39:38.992Z,310
2016-08-07T06:40:39.083Z,310
2016-08-07T06:41:39.003Z,310
2016-08-07T06:42:39.749Z,310
2016-08-07T06:43:39.747Z,310
2016-08-07T06:44:39.030Z,310
2016-08-07T06:45:39.088Z,310
2016-08-07T06:46:39.134Z,315
2016-08-07T06:47:39.052Z,315
2016-08-07T06:48:39.048Z,315
2016-08-07T06:49:39.067Z,320
2016-08-07T06:50:39.071Z,320
2016-08-07T06:51:39.072Z,320
2016-08-07T06:52:39.084Z,320
2016-08-07T06:53:39.797Z,320
2016-08-07T06:54:40.506Z,325
2016-08-07T06:55:39.189Z,325
2016-08-07T06:56:39.105Z,330
2016-08-07T06:57:39.193Z,325
2016-08-07T06:58:39.114Z,325
2016-08-07T06:59:39.834Z,275
2016-08-07T07:00:40.634Z,275
2016-08-07T07:01:39.136Z,275
2016-08-07T07:02:39.146Z,280
2016-08-07T07:03:39.861Z,275
2016-08-07T07:04:39.874Z,270
2016-08-07T07:05:39.189Z,270
2016-08-07T07:06:39.166Z,280
2016-08-07T07:07:39.211Z,290
2016-08-07T07:08:39.964Z,295
2016-08-07T07:09:40.612Z,290
2016-08-07T07:10:39.905Z,290
2016-08-07T07:11:39.235Z,290
2016-08-07T07:12:39.235Z,285
2016-08-07T07:13:39.427Z,290
2016-08-07T07:14:39.237Z,295
2016-08-07T07:15:39.328Z,300
2016-08-07T07:16:39.964Z,305
2016-08-07T07:17:39.239Z,310
2016-08-07T07:18:39.258Z,315
2016-08-07T07:19:39.280Z,325
2016-08-07T07:20:39.361Z,325
2016-08-07T07:21:39.268Z,300
2016-08-07T07:22:39.333Z,290
2016-08-07T07:23:39.301Z,285
2016-08-07T07:24:39.302Z,305
2016-08-07T07:25:39.362Z,310
2016-08-07T07:26:39.322Z,305
2016-08-07T07:27:39.306Z,305
2016-08-07T07:28:40.747Z,290
2016-08-07T07:29:42.880Z,275
2016-08-07T07:30:40.134Z,275
2016-08-07T07:31:39.333Z,270
2016-08-07T07:32:39.344Z,270
2016-08-07T07:33:40.062Z,275
2016-08-07T07:34:39.374Z,290
2016-08-07T07:35:41.346Z,295
2016-08-07T07:36:39.394Z,295
2016-08-07T07:38:39.395Z,305
2016-08-07T07:39:39.401Z,310
2016-08-07T07:40:39.474Z,315
2016-08-07T07:41:39.396Z,320
2016-08-07T07:42:39.408Z,325
2016-08-07T07:43:39.411Z,325
2016-08-07T07:44:40.142Z,325
2016-08-07T07:45:40.213Z,320
2016-08-07T07:46:39.430Z,320
2016-08-07T07:47:39.433Z,315
2016-08-07T08:02:28.621Z,320
2016-08-07T08:03:28.596Z,310
2016-08-07T08:04:27.899Z,310
2016-08-07T08:05:27.935Z,305
2016-08-07T08:06:27.930Z,305
2016-08-07T08:07:27.934Z,305
2016-08-07T08:08:27.931Z,305
2016-08-07T08:09:27.952Z,305
2016-08-07T08:10:27.947Z,305
2016-08-07T08:11:27.959Z,305
2016-08-07T08:12:27.961Z,305
2016-08-07T08:13:27.959Z,305
2016-08-07T08:14:27.966Z,305
2016-08-07T08:15:27.995Z,305
2016-08-07T08:16:27.993Z,305
2016-08-07T08:17:28.044Z,305
2016-08-07T08:18:28.089Z,305
2016-08-07T08:19:28.091Z,300
2016-08-07T08:20:28.039Z,300
2016-08-07T08:21:28.031Z,300
2016-08-07T08:22:28.031Z,300
2016-08-07T08:23:28.053Z,300
2016-08-07T08:24:28.782Z,295
2016-08-07T08:25:28.061Z,295
2016-08-07T08:26:28.068Z,290
2016-08-07T08:27:28.080Z,290
2016-08-07T08:28:28.087Z,290
2016-08-07T08:29:28.095Z,290
2016-08-07T08:30:28.105Z,285
2016-08-07T08:31:28.126Z,285
2016-08-07T08:32:28.134Z,290
2016-08-07T08:33:28.836Z,285
2016-08-07T08:34:28.144Z,285
2016-08-07T08:35:28.871Z,285
2016-08-07T08:36:28.158Z,285
2016-08-07T08:37:28.184Z,280
2016-08-07T08:38:28.201Z,280
2016-08-07T08:39:28.202Z,280
2016-08-07T08:40:28.225Z,280
2016-08-07T08:41:28.211Z,275
2016-08-07T08:42:28.220Z,275
2016-08-07T08:43:28.238Z,270
2016-08-07T08:44:28.238Z,270
2016-08-07T08:45:28.966Z,270
2016-08-07T08:46:28.251Z,270
2016-08-07T08:47:28.267Z,270
2016-08-07T08:48:28.290Z,265
2016-08-07T08:49:28.276Z,265
2016-08-07T08:50:30.434Z,265
2016-08-07T08:51:30.438Z,265
2016-08-07T08:52:28.300Z,265
2016-08-07T08:53:28.308Z,265
2016-08-07T08:54:29.025Z,270
2016-08-07T08:55:28.333Z,260
2016-08-07T08:56:28.380Z,260
2016-08-07T08:57:28.441Z,260
2016-08-07T08:58:29.074Z,255
2016-08-07T08:59:29.065Z,250
2016-08-07T09:00:29.091Z,250
2016-08-07T09:01:29.091Z,245
2016-08-07T09:02:28.367Z,245
2016-08-07T09:03:28.389Z,240
2016-08-07T09:04:28.383Z,240
2016-08-07T09:05:28.403Z,240
2016-08-07T09:06:28.413Z,240
2016-08-07T09:07:28.411Z,240
2016-08-07T09:08:28.421Z,235
2016-08-07T09:09:28.421Z,235
2016-08-07T09:10:28.425Z,235
2016-08-07T09:11:28.432Z,235
2016-08-07T09:12:28.436Z,235
2016-08-07T09:13:28.446Z,235
2016-08-07T09:14:28.469Z,235
2016-08-07T09:15:28.462Z,235
2016-08-07T09:16:28.460Z,235
2016-08-07T09:17:28.486Z,235
2016-08-07T09:18:28.490Z,235
2016-08-07T09:19:28.483Z,235
2016-08-07T09:20:28.491Z,235
2016-08-07T09:21:28.490Z,230
2016-08-07T09:22:28.497Z,230
2016-08-07T09:23:28.501Z,230
2016-08-07T09:24:29.221Z,230
2016-08-07T09:25:28.521Z,230
2016-08-07T09:26:29.232Z,230
2016-08-07T09:27:28.553Z,225
2016-08-07T09:28:28.533Z,225
2016-08-07T09:29:28.532Z,225
2016-08-07T09:30:28.560Z,225
2016-08-07T09:31:28.567Z,220
2016-08-07T09:32:28.561Z,220
2016-08-07T09:33:28.589Z,220
2016-08-07T09:34:28.563Z,220
2016-08-07T09:35:28.580Z,220
2016-08-07T09:36:28.567Z,225
2016-08-07T09:37:28.580Z,220
2016-08-07T09:39:28.614Z,215
2016-08-07T09:40:28.598Z,215
2016-08-07T09:41:28.607Z,215
2016-08-07T09:42:29.320Z,215
2016-08-07T09:43:29.325Z,215
2016-08-07T09:44:28.627Z,210
2016-08-07T09:45:28.620Z,215
2016-08-07T09:46:28.632Z,210
2016-08-07T09:47:28.629Z,210
2016-08-07T09:48:29.370Z,215
2016-08-07T09:49:28.652Z,210
2016-08-07T09:50:28.655Z,210
2016-08-07T09:51:29.385Z,210
2016-08-07T09:52:28.665Z,210
2016-08-07T09:53:28.699Z,205
2016-08-07T09:54:28.677Z,205
2016-08-07T09:55:28.664Z,205
2016-08-07T09:56:28.675Z,210
2016-08-07T09:57:28.696Z,205
2016-08-07T09:58:28.699Z,210
2016-08-07T09:59:28.696Z,205
2016-08-07T10:00:28.707Z,205
2016-08-07T10:01:28.726Z,205
2016-08-07T10:02:28.727Z,205
2016-08-07T10:03:28.732Z,205
2016-08-07T10:04:29.436Z,205
2016-08-07T10:05:29.468Z,205
2016-08-07T10:06:28.774Z,210
2016-08-07T10:07:28.736Z,205
2016-08-07T10:08:28.792Z,205
2016-08-07T10:09:28.750Z,205
2016-08-07T10:10:28.752Z,205
2016-08-07T10:11:28.762Z,200
2016-08-07T10:12:29.472Z,200
2016-08-07T10:13:28.759Z,200
2016-08-07T10:14:29.498Z,200
2016-08-07T10:15:28.771Z,200
2016-08-07T10:16:28.762Z,200
2016-08-07T10:17:28.778Z,205
2016-08-07T10:18:28.944Z,205
2016-08-07T10:19:28.780Z,205
2016-08-07T10:20:29.490Z,205
2016-08-07T10:21:28.797Z,205
2016-08-07T10:22:28.804Z,205
2016-08-07T10:23:28.861Z,200
2016-08-07T10:24:28.810Z,200
2016-08-07T10:25:28.814Z,200
2016-08-07T10:26:28.810Z,200
2016-08-07T10:27:28.816Z,200
2016-08-07T10:28:28.833Z,200
2016-08-07T10:29:28.828Z,200
2016-08-07T10:30:28.851Z,200
2016-08-07T10:31:28.859Z,200
2016-08-07T10:32:28.846Z,200
2016-08-07T10:33:28.856Z,200
2016-08-07T10:34:28.859Z,200
2016-08-07T10:35:28.870Z,200
2016-08-07T10:36:28.862Z,200
2016-08-07T10:37:28.867Z,200
2016-08-07T10:39:28.875Z,200
2016-08-07T10:40:28.900Z,200
2016-08-07T10:41:29.611Z,200
2016-08-07T10:42:28.890Z,200
2016-08-07T10:43:28.899Z,200
2016-08-07T10:44:28.924Z,200
2016-08-07T10:45:29.609Z,200
2016-08-07T10:46:28.923Z,200
2016-08-07T10:47:28.932Z,200
2016-08-07T10:48:28.935Z,195
2016-08-07T10:49:29.632Z,195
2016-08-07T10:50:28.941Z,195
2016-08-07T10:51:28.949Z,200
2016-08-07T10:52:28.947Z,195
2016-08-07T10:54:28.963Z,195
2016-08-07T10:55:28.958Z,195
2016-08-07T10:56:28.958Z,195
2016-08-07T10:57:28.978Z,200
2016-08-07T10:58:28.980Z,195
2016-08-07T10:59:28.983Z,195
2016-08-07T11:00:28.991Z,195
2016-08-07T11:01:28.987Z,195
2016-08-07T11:02:29.015Z,195
2016-08-07T11:03:29.001Z,200
2016-08-07T11:04:29.003Z,195
2016-08-07T11:05:29.732Z,195
2016-08-07T11:06:29.018Z,195
2016-08-07T11:07:29.024Z,200
2016-08-07T11:08:29.020Z,195
2016-08-07T11:09:29.036Z,195
2016-08-07T11:10:29.037Z,195
2016-08-07T11:11:29.057Z,195
2016-08-07T11:12:29.755Z,195
2016-08-07T11:13:29.768Z,195
2016-08-07T11:14:29.076Z,195
2016-08-07T11:15:29.070Z,195
2016-08-07T11:16:29.074Z,195
2016-08-07T11:17:29.781Z,195
2016-08-07T11:18:29.074Z,195
2016-08-07T11:19:29.074Z,190
2016-08-07T11:20:29.100Z,190
2016-08-07T11:21:29.086Z,195
2016-08-07T11:22:29.096Z,195
2016-08-07T11:23:29.102Z,195
2016-08-07T11:24:29.809Z,195
2016-08-07T11:25:29.114Z,190
2016-08-07T11:26:29.125Z,190
2016-08-07T11:27:29.141Z,190
2016-08-07T11:28:29.834Z,190
2016-08-07T11:29:29.139Z,190
2016-08-07T11:30:29.146Z,195
2016-08-07T11:31:29.141Z,190
2016-08-07T11:32:29.148Z,190
2016-08-07T11:33:29.162Z,190
2016-08-07T11:34:29.162Z,190
2016-08-07T11:35:29.172Z,190
2016-08-07T11:36:29.182Z,190
2016-08-07T11:37:29.189Z,195
2016-08-07T11:38:29.188Z,195
2016-08-07T11:39:29.899Z,190
2016-08-07T11:40:29.231Z,195
2016-08-07T11:41:29.222Z,190
2016-08-07T11:42:29.225Z,190
2016-08-07T11:43:29.228Z,190
2016-08-07T11:44:29.227Z,195
2016-08-07T11:45:29.224Z,190
2016-08-07T11:46:29.227Z,195
2016-08-07T11:47:29.230Z,190
2016-08-07T11:48:29.233Z,190
2016-08-07T11:49:29.241Z,190
2016-08-07T11:50:29.962Z,190
2016-08-07T11:51:29.244Z,195
2016-08-07T11:52:29.254Z,190
2016-08-07T11:53:29.278Z,190
2016-08-07T11:54:29.272Z,190
2016-08-07T11:55:29.276Z,190
2016-08-07T11:56:29.270Z,190
2016-08-07T11:57:29.298Z,190
2016-08-07T11:58:29.297Z,190
2016-08-07T11:59:30.026Z,190
2016-08-07T12:00:30.032Z,190
2016-08-07T12:01:29.300Z,190
2016-08-07T12:02:30.024Z,185
2016-08-07T12:03:29.322Z,185
2016-08-07T12:04:29.323Z,185
2016-08-07T12:05:29.324Z,185
2016-08-07T12:06:29.336Z,185
2016-08-07T12:07:30.039Z,185
2016-08-07T12:08:29.335Z,185
2016-08-07T12:09:29.362Z,190
2016-08-07T12:10:29.364Z,190
2016-08-07T12:11:29.368Z,185
2016-08-07T12:12:29.366Z,185
2016-08-07T12:13:29.375Z,190
2016-08-07T12:14:29.367Z,185
2016-08-07T12:15:29.372Z,185
2016-08-07T12:16:29.376Z,190
2016-08-07T12:17:29.400Z,185
2016-08-07T12:18:30.100Z,185
2016-08-07T12:19:30.099Z,185
2016-08-07T12:20:29.396Z,185
2016-08-07T12:21:29.410Z,190
2016-08-07T12:22:29.411Z,185
2016-08-07T12:23:29.415Z,185
2016-08-07T12:24:29.416Z,190
2016-08-07T12:25:29.436Z,180
2016-08-07T12:26:29.425Z,180
2016-08-07T12:27:29.449Z,180
2016-08-07T12:28:29.453Z,180
2016-08-07T12:29:29.445Z,180
2016-08-07T12:30:29.451Z,180
2016-08-07T12:31:29.453Z,180
2016-08-07T12:32:29.474Z,180
2016-08-07T12:33:29.472Z,180
2016-08-07T12:34:30.198Z,180
2016-08-07T12:35:30.392Z,180
2016-08-07T12:36:29.480Z,180
2016-08-07T12:37:29.485Z,180
2016-08-07T12:38:29.513Z,180
2016-08-07T12:39:29.518Z,180
2016-08-07T12:40:29.548Z,180
2016-08-07T12:41:29.516Z,180
2016-08-07T12:42:29.518Z,180
2016-08-07T12:43:29.525Z,180
2016-08-07T12:44:29.553Z,180
2016-08-07T12:45:29.538Z,180
2016-08-07T12:46:29.559Z,180
2016-08-07T12:47:29.572Z,180
2016-08-07T12:48:29.562Z,180
2016-08-07T12:49:29.559Z,180
2016-08-07T12:50:29.558Z,175
2016-08-07T12:51:29.599Z,175
2016-08-07T12:52:29.574Z,175
2016-08-07T12:53:29.586Z,175
2016-08-07T12:54:29.604Z,175
2016-08-07T12:55:29.603Z,175
2016-08-07T12:56:29.602Z,175
2016-08-07T12:57:29.600Z,175
2016-08-07T12:58:29.617Z,175
2016-08-07T12:59:29.615Z,175
2016-08-07T13:00:30.347Z,175
2016-08-07T13:01:29.628Z,175
2016-08-07T13:02:29.636Z,175
2016-08-07T13:03:29.645Z,175
2016-08-07T13:04:29.638Z,175
2016-08-07T13:05:29.656Z,175
2016-08-07T13:06:29.655Z,175
2016-08-07T13:07:29.654Z,175
2016-08-07T13:08:29.664Z,175
2016-08-07T13:09:30.401Z,175
2016-08-07T13:10:30.387Z,175
2016-08-07T13:11:29.676Z,175
2016-08-07T13:12:30.393Z,170
2016-08-07T13:13:30.401Z,170
2016-08-07T13:14:29.710Z,170
2016-08-07T13:15:29.708Z,170
2016-08-07T13:16:29.705Z,170
2016-08-07T13:17:29.726Z,170
2016-08-07T13:18:29.733Z,170
2016-08-07T13:19:30.434Z,170
2016-08-07T13:20:29.732Z,170
2016-08-07T13:21:29.735Z,170
2016-08-07T13:22:29.733Z,175
2016-08-07T13:23:29.758Z,170
2016-08-07T13:24:29.806Z,170
2016-08-07T13:25:30.702Z,170
2016-08-07T13:26:29.763Z,170
2016-08-07T13:27:29.772Z,170
2016-08-07T13:28:29.766Z,170
2016-08-07T13:29:30.532Z,170
2016-08-07T13:30:29.778Z,170
2016-08-07T13:31:29.777Z,170
2016-08-07T13:32:29.794Z,170
2016-08-07T13:33:30.503Z,170
2016-08-07T13:34:31.212Z,170
2016-08-07T13:35:29.806Z,170
2016-08-07T13:36:29.814Z,175
2016-08-07T13:37:29.823Z,170
2016-08-07T13:38:29.820Z,170
2016-08-07T13:40:29.848Z,170
2016-08-07T13:41:29.847Z,170
2016-08-07T13:42:29.852Z,170
2016-08-07T13:43:29.854Z,170
2016-08-07T13:44:29.857Z,175
2016-08-07T13:45:29.864Z,170
2016-08-07T13:46:29.868Z,170
2016-08-07T13:47:29.883Z,170
2016-08-07T13:48:29.875Z,170
2016-08-07T13:49:29.880Z,170
2016-08-07T13:50:29.899Z,170
2016-08-07T13:51:29.900Z,170
2016-08-07T13:52:29.902Z,170
2016-08-07T13:53:30.617Z,170
2016-08-07T13:54:29.968Z,170
2016-08-07T13:55:29.921Z,170
2016-08-07T13:56:29.921Z,170
2016-08-07T13:57:30.649Z,170
2016-08-07T13:58:30.638Z,170
2016-08-07T13:59:29.936Z,170
2016-08-07T14:00:29.955Z,170
2016-08-07T14:01:29.957Z,170
2016-08-07T14:02:30.670Z,170
2016-08-07T14:03:29.955Z,170
2016-08-07T14:04:29.973Z,170
2016-08-07T14:05:29.992Z,170
2016-08-07T14:06:29.991Z,170
2016-08-07T14:07:29.977Z,170
2016-08-07T14:08:30.712Z,170
2016-08-07T14:10:30.061Z,170
2016-08-07T14:11:30.020Z,170
2016-08-07T14:12:30.026Z,170
2016-08-07T14:13:30.724Z,170
2016-08-07T14:14:30.755Z,170
2016-08-07T14:15:30.046Z,170
2016-08-07T14:16:30.044Z,170
2016-08-07T14:17:30.055Z,170
2016-08-07T14:18:30.055Z,170
2016-08-07T14:19:30.055Z,170
2016-08-07T14:20:30.072Z,170
2016-08-07T14:21:30.062Z,170
2016-08-07T14:22:30.064Z,170
2016-08-07T14:23:30.093Z,170
2016-08-07T14:25:30.106Z,170
2016-08-07T14:26:30.092Z,170
2016-08-07T14:27:30.093Z,170
2016-08-07T14:28:30.106Z,170